createdAt,value
2022-12-31T00:02:18.592Z,774.13
2022-12-31T00:05:25.946Z,781.83
2022-12-31T00:08:34.692Z,798.16
2022-12-31T00:11:42.456Z,814.24
2022-12-31T00:14:48.668Z,847.16
2022-12-31T00:17:55.732Z,859.99
2022-12-31T00:21:02.289Z,821.37
2022-12-31T00:24:15.147Z,812.16
2022-12-31T00:27:22.593Z,789.90
2022-12-31T00:30:29.615Z,796.81
2022-12-31T00:33:35.717Z,673.03
2022-12-31T00:36:46.221Z,699.05
2022-12-31T00:39:55.210Z,728.68
2022-12-31T00:43:02.070Z,759.83
2022-12-31T00:46:10.293Z,748.23
2022-12-31T00:49:17.274Z,690.01
2022-12-31T00:52:23.532Z,654.63
2022-12-31T00:55:34.539Z,491.48
2022-12-31T00:58:41.099Z,378.99
2022-12-31T01:01:48.099Z,340.52
2022-12-31T01:04:54.659Z,320.63
2022-12-31T01:08:01.804Z,313.86
2022-12-31T01:11:23.183Z,304.99
2022-12-31T01:14:32.863Z,306.40
2022-12-31T01:17:38.895Z,292.98
2022-12-31T01:20:47.639Z,281.34
2022-12-31T01:23:54.181Z,282.26
2022-12-31T01:27:03.747Z,276.29
2022-12-31T01:30:12.897Z,254.46
2022-12-31T01:33:19.814Z,244.78
2022-12-31T01:36:29.294Z,243.45
2022-12-31T01:39:36.180Z,250.98
2022-12-31T01:42:44.849Z,263.11
2022-12-31T01:45:57.388Z,276.61
2022-12-31T01:49:13.845Z,292.68
2022-12-31T01:52:30.219Z,282.42
2022-12-31T01:55:45.431Z,266.37
2022-12-31T01:58:59.807Z,250.51
2022-12-31T02:02:06.904Z,236.51
2022-12-31T02:05:26.221Z,235.09
2022-12-31T02:08:35.760Z,217.10
2022-12-31T02:11:47.305Z,217.53
2022-12-31T02:14:59.108Z,216.19
2022-12-31T02:18:19.433Z,215.58
2022-12-31T02:21:53.836Z,233.85
2022-12-31T02:25:52.162Z,229.98
2022-12-31T02:29:38.418Z,218.08
2022-12-31T02:33:08.897Z,211.32
2022-12-31T02:36:23.710Z,205.35
2022-12-31T02:39:33.204Z,205.45
2022-12-31T02:42:40.031Z,202.45
2022-12-31T02:45:53.722Z,200.12
2022-12-31T02:49:24.259Z,196.92
2022-12-31T02:52:51.043Z,216.08
2022-12-31T02:56:12.102Z,216.47
2022-12-31T02:59:41.872Z,218.88
2022-12-31T03:02:53.273Z,210.97
2022-12-31T03:06:06.778Z,206.57
2022-12-31T03:09:16.610Z,215.21
2022-12-31T03:12:41.193Z,221.14
2022-12-31T03:15:48.249Z,223.26
2022-12-31T03:19:06.570Z,218.17
2022-12-31T03:22:31.981Z,227.90
2022-12-31T03:25:38.686Z,237.77
2022-12-31T03:28:48.157Z,229.68
2022-12-31T03:31:54.482Z,228.36
2022-12-31T03:35:01.581Z,257.84
2022-12-31T03:38:11.692Z,249.90
2022-12-31T03:41:18.621Z,247.93
2022-12-31T03:44:24.998Z,251.78
2022-12-31T03:47:32.435Z,259.80
2022-12-31T03:50:39.170Z,273.52
2022-12-31T03:53:48.737Z,248.41
2022-12-31T03:56:59.887Z,226.33
2022-12-31T04:00:10.983Z,210.54
2022-12-31T04:03:17.139Z,195.24
2022-12-31T04:06:24.160Z,196.96
2022-12-31T04:09:32.838Z,190.56
2022-12-31T04:12:40.251Z,197.90
2022-12-31T04:15:46.403Z,197.74
2022-12-31T04:18:53.491Z,193.96
2022-12-31T04:21:59.578Z,188.31
2022-12-31T04:25:13.177Z,187.60
2022-12-31T04:28:19.347Z,182.84
2022-12-31T04:31:26.382Z,182.25
2022-12-31T04:34:32.968Z,171.00
2022-12-31T04:37:40.335Z,173.78
2022-12-31T04:41:01.583Z,169.96
2022-12-31T04:44:08.629Z,172.32
2022-12-31T04:47:18.772Z,170.98
2022-12-31T04:50:30.281Z,178.48
2022-12-31T04:53:36.518Z,179.34
2022-12-31T04:56:46.143Z,179.57
2022-12-31T04:59:52.237Z,172.38
2022-12-31T05:02:59.195Z,182.74
2022-12-31T05:06:08.510Z,192.80
2022-12-31T05:09:15.456Z,192.70
2022-12-31T05:12:24.279Z,187.73
2022-12-31T05:15:31.240Z,186.28
2022-12-31T05:18:37.822Z,184.74
2022-12-31T05:22:04.787Z,175.19
2022-12-31T05:25:12.462Z,166.82
2022-12-31T05:28:22.640Z,166.35
2022-12-31T05:31:28.946Z,163.17
2022-12-31T05:34:35.882Z,159.64
2022-12-31T05:37:42.385Z,152.53
2022-12-31T05:40:49.404Z,152.51
2022-12-31T05:43:58.120Z,155.81
2022-12-31T05:47:05.111Z,141.50
2022-12-31T05:50:12.950Z,128.65
2022-12-31T05:53:19.967Z,130.34
2022-12-31T05:56:26.067Z,123.04
2022-12-31T05:59:36.093Z,120.19
2022-12-31T06:02:42.313Z,113.84
2022-12-31T06:05:49.463Z,112.22
2022-12-31T06:08:55.977Z,107.41
2022-12-31T06:12:02.982Z,107.41
2022-12-31T06:15:13.421Z,103.37
2022-12-31T06:18:20.414Z,116.23
2022-12-31T06:21:26.952Z,110.77
2022-12-31T06:24:33.854Z,120.16
2022-12-31T06:27:39.958Z,113.71
2022-12-31T06:30:49.748Z,107.15
2022-12-31T06:33:57.426Z,108.78
2022-12-31T06:37:04.314Z,109.98
2022-12-31T06:40:12.780Z,111.84
2022-12-31T06:43:19.964Z,109.43
2022-12-31T06:46:28.707Z,111.03
2022-12-31T06:49:35.623Z,109.54
2022-12-31T06:52:41.788Z,102.74
2022-12-31T06:55:52.079Z,97.73
2022-12-31T06:58:59.538Z,96.02
2022-12-31T07:02:49.999Z,96.10
2022-12-31T07:06:09.053Z,103.65
2022-12-31T07:09:29.499Z,101.01
2022-12-31T07:13:10.404Z,108.14
2022-12-31T07:16:43.022Z,112.81
2022-12-31T07:20:05.957Z,117.41
2022-12-31T07:23:14.039Z,131.27
2022-12-31T07:26:48.689Z,134.74
2022-12-31T07:30:12.679Z,144.26
2022-12-31T07:33:53.722Z,142.90
2022-12-31T07:37:16.426Z,130.06
2022-12-31T07:40:37.519Z,113.00
2022-12-31T07:44:04.155Z,106.52
2022-12-31T07:47:24.685Z,101.61
2022-12-31T07:50:33.011Z,103.41
2022-12-31T07:53:42.263Z,106.05
2022-12-31T07:56:52.528Z,106.31
2022-12-31T08:00:10.911Z,109.08
2022-12-31T08:03:50.890Z,108.68
2022-12-31T08:07:14.688Z,103.87
2022-12-31T08:10:40.590Z,129.17
2022-12-31T08:13:48.400Z,127.70
2022-12-31T08:16:57.275Z,136.66
2022-12-31T08:20:04.570Z,149.88
2022-12-31T08:23:31.607Z,158.71
2022-12-31T08:26:56.886Z,130.05
2022-12-31T08:30:12.087Z,102.20
2022-12-31T08:33:32.124Z,97.33
2022-12-31T08:36:56.506Z,86.89
2022-12-31T08:40:27.232Z,81.29
2022-12-31T08:43:57.540Z,78.20
2022-12-31T08:47:20.519Z,74.29
2022-12-31T08:50:28.744Z,78.98
2022-12-31T08:53:36.165Z,76.72
2022-12-31T08:56:56.672Z,79.35
2022-12-31T09:00:14.699Z,100.13
2022-12-31T09:03:46.206Z,99.67
2022-12-31T09:07:03.436Z,148.97
2022-12-31T09:10:25.573Z,106.28
2022-12-31T09:14:00.462Z,82.72
2022-12-31T09:17:42.210Z,84.60
2022-12-31T09:20:49.595Z,97.38
2022-12-31T09:23:57.834Z,82.30
2022-12-31T09:27:25.428Z,80.57
2022-12-31T09:30:48.663Z,82.10
2022-12-31T09:34:09.889Z,97.16
2022-12-31T09:37:25.188Z,109.72
2022-12-31T09:41:15.858Z,117.50
2022-12-31T09:45:37.195Z,100.14
2022-12-31T09:49:49.319Z,78.57
2022-12-31T09:53:48.738Z,56.24
2022-12-31T09:57:47.670Z,63.63
2022-12-31T10:01:04.447Z,59.14
2022-12-31T10:04:55.062Z,58.51
2022-12-31T10:08:25.017Z,53.13
2022-12-31T10:12:05.838Z,58.11
2022-12-31T10:15:51.754Z,52.71
2022-12-31T10:19:56.361Z,54.38
2022-12-31T10:23:35.580Z,66.47
2022-12-31T10:27:04.180Z,70.38
2022-12-31T10:30:20.977Z,81.42
2022-12-31T10:33:47.892Z,70.41
2022-12-31T10:37:13.988Z,65.04
2022-12-31T10:40:48.146Z,78.00
2022-12-31T10:44:42.432Z,72.29
2022-12-31T10:48:35.671Z,76.25
2022-12-31T10:52:30.569Z,64.49
2022-12-31T10:56:33.310Z,75.79
2022-12-31T11:00:17.204Z,60.23
2022-12-31T11:04:10.655Z,70.64
2022-12-31T11:07:58.015Z,109.88
2022-12-31T11:11:34.832Z,79.79
2022-12-31T11:15:18.800Z,71.39
2022-12-31T11:18:43.748Z,87.25
2022-12-31T11:22:25.426Z,81.05
2022-12-31T11:26:05.057Z,82.47
2022-12-31T11:29:42.393Z,94.17
2022-12-31T11:33:20.209Z,96.48
2022-12-31T11:36:47.738Z,99.41
2022-12-31T11:40:18.358Z,91.16
2022-12-31T11:43:38.560Z,80.55
2022-12-31T11:47:06.827Z,80.05
2022-12-31T11:50:39.106Z,84.47
2022-12-31T11:54:27.270Z,93.59
2022-12-31T11:57:39.339Z,97.94
2022-12-31T12:00:59.323Z,70.96
2022-12-31T12:04:07.654Z,72.62
2022-12-31T12:07:18.683Z,62.08
2022-12-31T12:10:36.201Z,65.15
2022-12-31T12:13:42.756Z,60.99
2022-12-31T12:17:04.419Z,71.26
2022-12-31T12:20:24.511Z,75.51
2022-12-31T12:23:33.080Z,95.04
2022-12-31T12:26:42.278Z,83.78
2022-12-31T12:29:49.475Z,71.96
2022-12-31T12:33:04.978Z,63.19
2022-12-31T12:36:15.658Z,62.01
2022-12-31T12:39:28.259Z,58.36
2022-12-31T12:42:36.054Z,72.09
2022-12-31T12:45:52.372Z,75.13
2022-12-31T12:49:04.433Z,66.17
2022-12-31T12:52:57.709Z,80.12
2022-12-31T12:56:27.765Z,90.37
2022-12-31T13:00:09.575Z,105.77
2022-12-31T13:08:06.219Z,87.81
2022-12-31T13:11:34.376Z,109.18
2022-12-31T13:14:54.680Z,98.82
2022-12-31T13:18:22.297Z,88.56
2022-12-31T13:21:48.380Z,78.42
2022-12-31T13:25:10.483Z,79.23
2022-12-31T13:28:22.936Z,83.59
2022-12-31T13:31:39.384Z,79.09
2022-12-31T13:34:51.139Z,71.30
2022-12-31T13:38:08.489Z,73.78
2022-12-31T13:41:27.330Z,64.61
2022-12-31T13:44:44.981Z,61.14
2022-12-31T13:48:01.685Z,58.80
2022-12-31T13:51:21.178Z,65.27
2022-12-31T13:54:44.715Z,80.02
2022-12-31T13:58:06.086Z,89.93
2022-12-31T14:01:23.429Z,108.53
2022-12-31T14:04:42.342Z,147.99
2022-12-31T14:07:57.841Z,134.25
2022-12-31T14:11:23.842Z,166.40
2022-12-31T14:14:46.184Z,111.72
2022-12-31T14:18:08.981Z,106.70
2022-12-31T14:21:26.468Z,117.22
2022-12-31T14:24:48.341Z,116.74
2022-12-31T14:27:59.669Z,107.76
2022-12-31T14:31:26.619Z,131.09
2022-12-31T14:34:49.929Z,121.44
2022-12-31T14:38:10.514Z,123.43
2022-12-31T14:41:46.492Z,125.60
2022-12-31T14:45:18.599Z,138.97
2022-12-31T14:48:50.229Z,123.29
2022-12-31T14:51:58.988Z,122.42
2022-12-31T14:55:27.512Z,124.80
2022-12-31T14:58:39.055Z,128.68
2022-12-31T15:01:48.842Z,118.91
2022-12-31T15:05:19.329Z,134.35
2022-12-31T15:08:52.759Z,127.15
2022-12-31T15:12:27.052Z,117.14
2022-12-31T15:15:56.603Z,103.74
2022-12-31T15:20:00.448Z,101.07
2022-12-31T15:23:24.290Z,99.51
2022-12-31T15:26:35.366Z,96.86
2022-12-31T15:29:49.189Z,99.40
2022-12-31T15:33:04.050Z,123.76
2022-12-31T15:36:20.980Z,160.68
2022-12-31T15:39:46.241Z,197.27
2022-12-31T15:43:03.012Z,227.91
2022-12-31T15:46:20.479Z,221.36
2022-12-31T15:49:29.495Z,222.08
2022-12-31T15:52:48.138Z,233.62
2022-12-31T15:56:02.774Z,207.37
2022-12-31T15:59:18.899Z,182.19
2022-12-31T16:02:29.735Z,167.24
2022-12-31T16:05:38.988Z,159.52
2022-12-31T16:08:52.801Z,146.33
2022-12-31T16:12:12.932Z,138.87
2022-12-31T16:15:30.794Z,137.52
2022-12-31T16:18:43.130Z,118.87
2022-12-31T16:21:50.271Z,124.19
2022-12-31T16:25:29.719Z,129.81
2022-12-31T16:28:35.735Z,125.96
2022-12-31T16:31:45.872Z,117.80
2022-12-31T16:34:55.033Z,109.12
2022-12-31T16:38:18.162Z,122.85
2022-12-31T16:41:25.369Z,135.50
2022-12-31T16:44:35.063Z,144.57
2022-12-31T16:47:41.658Z,161.85
2022-12-31T16:50:52.644Z,157.65
2022-12-31T16:54:01.122Z,141.08
2022-12-31T16:57:13.308Z,132.07
2022-12-31T17:00:27.854Z,139.79
2022-12-31T17:03:49.721Z,131.30
2022-12-31T17:06:56.279Z,122.90
2022-12-31T17:10:16.374Z,117.93
2022-12-31T17:13:37.172Z,135.57
2022-12-31T17:17:03.158Z,125.21
2022-12-31T17:20:22.545Z,138.15
2022-12-31T17:23:37.333Z,140.03
2022-12-31T17:26:43.895Z,149.28
2022-12-31T17:29:51.176Z,159.30
2022-12-31T17:33:03.776Z,168.91
2022-12-31T17:36:25.283Z,144.96
2022-12-31T17:39:47.080Z,146.98
2022-12-31T17:42:54.069Z,150.84
2022-12-31T17:46:00.247Z,141.59
2022-12-31T17:49:16.351Z,125.60
2022-12-31T17:52:22.392Z,123.50
2022-12-31T17:55:32.335Z,117.39
2022-12-31T17:58:49.259Z,122.97
2022-12-31T18:01:56.406Z,121.07
2022-12-31T18:05:05.474Z,116.94
2022-12-31T18:08:12.482Z,128.01
2022-12-31T18:11:23.296Z,138.88
2022-12-31T18:14:30.435Z,149.88
2022-12-31T18:17:37.567Z,148.65
2022-12-31T18:20:47.745Z,144.85
2022-12-31T18:26:59.818Z,113.64
2022-12-31T18:30:07.043Z,116.91
2022-12-31T18:33:22.424Z,110.61
2022-12-31T18:36:32.549Z,109.82
2022-12-31T18:39:39.540Z,111.65
2022-12-31T18:42:46.706Z,109.49
2022-12-31T18:45:55.343Z,109.36
2022-12-31T18:49:01.731Z,109.74
2022-12-31T18:52:17.329Z,108.95
2022-12-31T18:55:33.243Z,105.87
2022-12-31T18:58:40.284Z,104.45
2022-12-31T19:01:46.481Z,112.21
2022-12-31T19:04:53.509Z,107.37
2022-12-31T19:08:02.726Z,106.95
2022-12-31T19:11:09.697Z,107.19
2022-12-31T19:14:21.927Z,102.73
2022-12-31T19:17:31.131Z,105.16
2022-12-31T19:20:37.722Z,109.02
2022-12-31T19:23:47.752Z,103.48
2022-12-31T19:26:54.460Z,112.64
2022-12-31T19:30:01.658Z,112.06
2022-12-31T19:33:07.938Z,114.96
2022-12-31T19:36:20.057Z,107.28
2022-12-31T19:39:28.821Z,105.96
2022-12-31T19:42:35.777Z,104.32
2022-12-31T19:45:44.284Z,105.76
2022-12-31T19:48:51.580Z,113.05
2022-12-31T19:51:57.785Z,126.15
2022-12-31T19:55:08.189Z,117.44
2022-12-31T19:58:21.825Z,126.98
2022-12-31T20:01:29.023Z,126.12
2022-12-31T20:04:35.631Z,132.66
2022-12-31T20:07:43.138Z,134.41
2022-12-31T20:10:51.833Z,137.72
2022-12-31T20:13:58.800Z,146.45
2022-12-31T20:17:05.192Z,144.85
2022-12-31T20:20:13.574Z,164.24
2022-12-31T20:23:20.598Z,146.95
2022-12-31T20:26:30.251Z,133.74
2022-12-31T20:29:36.735Z,127.01
2022-12-31T20:32:43.665Z,114.77
2022-12-31T20:35:50.041Z,114.39
2022-12-31T20:38:57.092Z,113.62
2022-12-31T20:42:05.933Z,115.37
2022-12-31T20:45:14.650Z,113.30
2022-12-31T20:48:20.836Z,107.69
2022-12-31T20:51:30.599Z,108.82
2022-12-31T20:54:37.513Z,120.27
2022-12-31T20:57:47.523Z,124.92
2022-12-31T21:00:56.193Z,157.45
2022-12-31T21:04:06.696Z,159.39
2022-12-31T21:07:13.309Z,146.41
2022-12-31T21:10:20.459Z,163.17
2022-12-31T21:13:29.303Z,183.53
2022-12-31T21:16:36.894Z,194.37
2022-12-31T21:19:43.125Z,198.89
2022-12-31T21:22:49.982Z,189.45
2022-12-31T21:25:56.049Z,183.11
2022-12-31T21:29:05.972Z,165.33
2022-12-31T21:32:12.091Z,172.21
2022-12-31T21:38:45.975Z,178.22
2022-12-31T21:41:56.038Z,180.21
2022-12-31T21:45:05.863Z,176.70
2022-12-31T21:48:25.215Z,182.70
2022-12-31T21:51:32.639Z,183.15
2022-12-31T21:54:51.840Z,185.40
2022-12-31T21:58:28.083Z,200.90
2022-12-31T22:01:39.940Z,153.94
2022-12-31T22:05:03.074Z,149.51
2022-12-31T22:08:11.203Z,145.92
2022-12-31T22:11:20.212Z,143.05
2022-12-31T22:14:27.148Z,142.80
2022-12-31T22:17:36.668Z,144.31
2022-12-31T22:20:44.233Z,139.88
2022-12-31T22:23:56.145Z,142.15
2022-12-31T22:27:29.579Z,163.27
2022-12-31T22:30:31.233Z,134.61
2022-12-31T22:33:41.029Z,133.85
2022-12-31T22:36:47.379Z,131.96
2022-12-31T22:39:56.066Z,127.27
2022-12-31T22:43:02.955Z,122.38
2022-12-31T22:46:14.543Z,131.38
2022-12-31T22:49:23.999Z,129.60
2022-12-31T22:52:31.144Z,129.87
2022-12-31T22:55:37.242Z,122.92
2022-12-31T22:58:44.720Z,133.28
2022-12-31T23:01:50.963Z,184.78
2022-12-31T23:05:15.278Z,366.68
2022-12-31T23:08:27.768Z,456.77
2022-12-31T23:11:46.212Z,443.29
2022-12-31T23:15:04.704Z,341.93
2022-12-31T23:18:24.254Z,259.02
2022-12-31T23:21:45.500Z,219.04
2022-12-31T23:24:52.503Z,218.17
2022-12-31T23:27:58.633Z,187.99
2022-12-31T23:31:09.669Z,159.30
2022-12-31T23:34:15.791Z,121.99
2022-12-31T23:37:25.447Z,115.73
2022-12-31T23:40:34.541Z,115.73
2022-12-31T23:43:41.623Z,139.61
2022-12-31T23:46:47.835Z,164.33
2022-12-31T23:49:54.928Z,187.19
2022-12-31T23:53:03.740Z,183.29
2022-12-31T23:56:23.045Z,168.25
2022-12-31T23:59:29.950Z,169.77
